sensor_id;sensor_type;location;lat;lon;timestamp;temperature;humidity
66835;HTU21D;53743;51.100;5.874;2023-06-19T00:00:18;24.35;46.69
66835;HTU21D;53743;51.100;5.874;2023-06-19T00:01:20;24.39;45.60
66835;HTU21D;53743;51.100;5.874;2023-06-19T00:02:22;24.39;45.64
66835;HTU21D;53743;51.100;5.874;2023-06-19T00:03:23;24.39;45.73
66835;HTU21D;53743;51.100;5.874;2023-06-19T00:04:25;24.36;45.87
66835;HTU21D;53743;51.100;5.874;2023-06-19T00:05:27;24.38;45.88
66835;HTU21D;53743;51.100;5.874;2023-06-19T00:06:29;24.35;45.93
66835;HTU21D;53743;51.100;5.874;2023-06-19T00:07:30;24.35;46.02
66835;HTU21D;53743;51.100;5.874;2023-06-19T00:08:32;24.35;46.13
66835;HTU21D;53743;51.100;5.874;2023-06-19T00:09:33;24.34;46.18
66835;HTU21D;53743;51.100;5.874;2023-06-19T00:10:34;24.34;46.38
66835;HTU21D;53743;51.100;5.874;2023-06-19T00:11:35;24.31;46.85
66835;HTU21D;53743;51.100;5.874;2023-06-19T00:12:37;24.30;46.53
66835;HTU21D;53743;51.100;5.874;2023-06-19T00:13:38;24.27;47.57
66835;HTU21D;53743;51.100;5.874;2023-06-19T00:14:40;24.25;47.31
66835;HTU21D;53743;51.100;5.874;2023-06-19T00:15:43;24.21;46.80
66835;HTU21D;53743;51.100;5.874;2023-06-19T00:16:45;24.21;46.90
66835;HTU21D;53743;51.100;5.874;2023-06-19T00:17:46;24.18;47.04
66835;HTU21D;53743;51.100;5.874;2023-06-19T00:18:48;24.18;47.46
66835;HTU21D;53743;51.100;5.874;2023-06-19T00:19:49;24.14;47.47
66835;HTU21D;53743;51.100;5.874;2023-06-19T00:20:51;24.16;47.41
66835;HTU21D;53743;51.100;5.874;2023-06-19T00:21:53;24.16;48.04
66835;HTU21D;53743;51.100;5.874;2023-06-19T00:22:57;24.16;48.34
66835;HTU21D;53743;51.100;5.874;2023-06-19T00:23:58;24.13;47.75
66835;HTU21D;53743;51.100;5.874;2023-06-19T00:25:00;24.13;47.69
66835;HTU21D;53743;51.100;5.874;2023-06-19T00:26:03;24.12;47.70
66835;HTU21D;53743;51.100;5.874;2023-06-19T00:27:07;24.13;47.72
66835;HTU21D;53743;51.100;5.874;2023-06-19T00:28:09;24.15;47.81
66835;HTU21D;53743;51.100;5.874;2023-06-19T00:29:14;24.17;47.64
66835;HTU21D;53743;51.100;5.874;2023-06-19T00:30:15;24.16;47.67
66835;HTU21D;53743;51.100;5.874;2023-06-19T00:31:18;24.19;47.67
66835;HTU21D;53743;51.100;5.874;2023-06-19T00:32:22;24.23;47.67
66835;HTU21D;53743;51.100;5.874;2023-06-19T00:33:24;24.24;48.03
66835;HTU21D;53743;51.100;5.874;2023-06-19T00:34:29;24.24;47.68
66835;HTU21D;53743;51.100;5.874;2023-06-19T00:35:32;24.26;47.78
66835;HTU21D;53743;51.100;5.874;2023-06-19T00:36:33;24.28;47.70
66835;HTU21D;53743;51.100;5.874;2023-06-19T00:37:41;24.29;47.81
66835;HTU21D;53743;51.100;5.874;2023-06-19T00:38:45;24.33;47.56
66835;HTU21D;53743;51.100;5.874;2023-06-19T00:39:47;24.34;47.50
66835;HTU21D;53743;51.100;5.874;2023-06-19T00:40:48;24.34;47.63
66835;HTU21D;53743;51.100;5.874;2023-06-19T00:41:51;24.35;47.63
66835;HTU21D;53743;51.100;5.874;2023-06-19T00:42:53;24.36;47.67
66835;HTU21D;53743;51.100;5.874;2023-06-19T00:43:55;24.39;47.65
66835;HTU21D;53743;51.100;5.874;2023-06-19T00:44:56;24.41;47.73
66835;HTU21D;53743;51.100;5.874;2023-06-19T00:45:58;24.44;47.77
66835;HTU21D;53743;51.100;5.874;2023-06-19T00:47:02;24.47;47.71
66835;HTU21D;53743;51.100;5.874;2023-06-19T00:48:06;24.48;47.81
66835;HTU21D;53743;51.100;5.874;2023-06-19T00:49:07;24.49;47.85
66835;HTU21D;53743;51.100;5.874;2023-06-19T00:50:11;24.49;47.83
66835;HTU21D;53743;51.100;5.874;2023-06-19T00:51:12;24.50;47.73
66835;HTU21D;53743;51.100;5.874;2023-06-19T00:52:16;24.51;47.71
66835;HTU21D;53743;51.100;5.874;2023-06-19T00:53:19;24.51;47.88
66835;HTU21D;53743;51.100;5.874;2023-06-19T00:54:21;24.50;47.79
66835;HTU21D;53743;51.100;5.874;2023-06-19T00:55:26;24.51;47.71
66835;HTU21D;53743;51.100;5.874;2023-06-19T00:56:31;24.51;48.13
66835;HTU21D;53743;51.100;5.874;2023-06-19T00:57:33;24.53;47.78
66835;HTU21D;53743;51.100;5.874;2023-06-19T00:58:35;24.50;47.97
66835;HTU21D;53743;51.100;5.874;2023-06-19T00:59:37;24.49;47.86
66835;HTU21D;53743;51.100;5.874;2023-06-19T01:00:39;24.47;47.90
66835;HTU21D;53743;51.100;5.874;2023-06-19T01:01:42;24.45;48.02
66835;HTU21D;53743;51.100;5.874;2023-06-19T01:02:46;24.46;48.15
66835;HTU21D;53743;51.100;5.874;2023-06-19T01:03:48;24.44;48.22
66835;HTU21D;53743;51.100;5.874;2023-06-19T01:04:52;24.41;48.30
66835;HTU21D;53743;51.100;5.874;2023-06-19T01:05:54;24.41;48.39
66835;HTU21D;53743;51.100;5.874;2023-06-19T01:07:04;24.40;48.52
66835;HTU21D;53743;51.100;5.874;2023-06-19T01:08:18;24.39;48.60
66835;HTU21D;53743;51.100;5.874;2023-06-19T01:09:36;24.39;48.66
66835;HTU21D;53743;51.100;5.874;2023-06-19T01:10:49;24.35;48.66
66835;HTU21D;53743;51.100;5.874;2023-06-19T01:11:59;24.35;48.71
66835;HTU21D;53743;51.100;5.874;2023-06-19T01:13:15;24.33;48.79
66835;HTU21D;53743;51.100;5.874;2023-06-19T01:14:26;24.31;48.93
66835;HTU21D;53743;51.100;5.874;2023-06-19T01:15:30;24.28;49.00
66835;HTU21D;53743;51.100;5.874;2023-06-19T01:16:33;24.27;49.01
66835;HTU21D;53743;51.100;5.874;2023-06-19T01:17:36;24.23;49.14
66835;HTU21D;53743;51.100;5.874;2023-06-19T01:18:41;24.20;49.39
66835;HTU21D;53743;51.100;5.874;2023-06-19T01:19:43;24.20;49.40
66835;HTU21D;53743;51.100;5.874;2023-06-19T01:20:46;24.18;49.42
66835;HTU21D;53743;51.100;5.874;2023-06-19T01:21:48;24.17;49.49
66835;HTU21D;53743;51.100;5.874;2023-06-19T01:22:52;24.15;49.63
66835;HTU21D;53743;51.100;5.874;2023-06-19T01:23:57;24.14;49.74
66835;HTU21D;53743;51.100;5.874;2023-06-19T01:24:59;24.13;50.54
66835;HTU21D;53743;51.100;5.874;2023-06-19T01:26:00;24.12;49.95
66835;HTU21D;53743;51.100;5.874;2023-06-19T01:27:02;24.11;49.95
66835;HTU21D;53743;51.100;5.874;2023-06-19T01:28:05;24.06;50.04
66835;HTU21D;53743;51.100;5.874;2023-06-19T01:29:12;24.04;49.98
66835;HTU21D;53743;51.100;5.874;2023-06-19T01:30:15;24.00;50.22
66835;HTU21D;53743;51.100;5.874;2023-06-19T01:31:22;23.98;50.14
66835;HTU21D;53743;51.100;5.874;2023-06-19T01:32:34;23.95;50.41
66835;HTU21D;53743;51.100;5.874;2023-06-19T01:33:45;23.90;50.50
66835;HTU21D;53743;51.100;5.874;2023-06-19T01:34:52;23.86;50.59
66835;HTU21D;53743;51.100;5.874;2023-06-19T01:35:58;23.83;50.62
66835;HTU21D;53743;51.100;5.874;2023-06-19T01:37:04;23.79;51.04
66835;HTU21D;53743;51.100;5.874;2023-06-19T01:38:10;23.77;50.82
66835;HTU21D;53743;51.100;5.874;2023-06-19T01:39:15;23.72;51.37
66835;HTU21D;53743;51.100;5.874;2023-06-19T01:40:19;23.72;51.30
66835;HTU21D;53743;51.100;5.874;2023-06-19T01:41:26;23.70;52.43
66835;HTU21D;53743;51.100;5.874;2023-06-19T01:42:29;23.67;51.49
66835;HTU21D;53743;51.100;5.874;2023-06-19T01:43:31;23.60;51.95
66835;HTU21D;53743;51.100;5.874;2023-06-19T01:44:34;23.58;51.81
66835;HTU21D;53743;51.100;5.874;2023-06-19T01:45:36;23.55;52.11
66835;HTU21D;53743;51.100;5.874;2023-06-19T01:46:38;23.52;52.11
66835;HTU21D;53743;51.100;5.874;2023-06-19T01:47:39;23.47;52.50
66835;HTU21D;53743;51.100;5.874;2023-06-19T01:48:42;23.44;53.57
66835;HTU21D;53743;51.100;5.874;2023-06-19T01:49:43;23.40;53.15
66835;HTU21D;53743;51.100;5.874;2023-06-19T01:50:46;23.39;53.52
66835;HTU21D;53743;51.100;5.874;2023-06-19T01:51:47;23.37;53.55
66835;HTU21D;53743;51.100;5.874;2023-06-19T01:52:51;23.36;53.66
66835;HTU21D;53743;51.100;5.874;2023-06-19T01:53:54;23.34;54.94
66835;HTU21D;53743;51.100;5.874;2023-06-19T01:54:56;23.28;54.83
66835;HTU21D;53743;51.100;5.874;2023-06-19T01:55:57;23.27;54.17
66835;HTU21D;53743;51.100;5.874;2023-06-19T01:56:59;23.27;54.34
66835;HTU21D;53743;51.100;5.874;2023-06-19T01:58:00;23.24;55.20
66835;HTU21D;53743;51.100;5.874;2023-06-19T01:59:04;23.26;54.90
66835;HTU21D;53743;51.100;5.874;2023-06-19T02:00:06;23.23;55.17
66835;HTU21D;53743;51.100;5.874;2023-06-19T02:01:14;23.23;56.24
66835;HTU21D;53743;51.100;5.874;2023-06-19T02:02:15;23.20;55.08
66835;HTU21D;53743;51.100;5.874;2023-06-19T02:03:17;23.17;57.72
66835;HTU21D;53743;51.100;5.874;2023-06-19T02:04:18;23.17;55.77
66835;HTU21D;53743;51.100;5.874;2023-06-19T02:05:21;23.18;57.08
66835;HTU21D;53743;51.100;5.874;2023-06-19T02:06:22;23.16;56.43
66835;HTU21D;53743;51.100;5.874;2023-06-19T02:07:24;23.17;56.38
66835;HTU21D;53743;51.100;5.874;2023-06-19T02:08:25;23.12;57.59
66835;HTU21D;53743;51.100;5.874;2023-06-19T02:09:28;23.12;56.94
66835;HTU21D;53743;51.100;5.874;2023-06-19T02:10:29;23.15;56.86
66835;HTU21D;53743;51.100;5.874;2023-06-19T02:11:31;23.13;56.83
66835;HTU21D;53743;51.100;5.874;2023-06-19T02:12:32;23.17;57.15
66835;HTU21D;53743;51.100;5.874;2023-06-19T02:13:34;23.12;58.67
66835;HTU21D;53743;51.100;5.874;2023-06-19T02:14:36;23.08;57.82
66835;HTU21D;53743;51.100;5.874;2023-06-19T02:15:37;23.03;58.19
66835;HTU21D;53743;51.100;5.874;2023-06-19T02:16:39;22.96;58.75
66835;HTU21D;53743;51.100;5.874;2023-06-19T02:17:44;22.90;58.77
66835;HTU21D;53743;51.100;5.874;2023-06-19T02:18:45;22.85;60.45
66835;HTU21D;53743;51.100;5.874;2023-06-19T02:19:47;22.83;60.00
66835;HTU21D;53743;51.100;5.874;2023-06-19T02:20:48;22.78;61.02
66835;HTU21D;53743;51.100;5.874;2023-06-19T02:21:50;22.72;60.15
66835;HTU21D;53743;51.100;5.874;2023-06-19T02:22:51;22.70;59.64
66835;HTU21D;53743;51.100;5.874;2023-06-19T02:23:53;22.69;60.62
66835;HTU21D;53743;51.100;5.874;2023-06-19T02:24:56;22.66;61.34
66835;HTU21D;53743;51.100;5.874;2023-06-19T02:25:58;22.63;61.41
66835;HTU21D;53743;51.100;5.874;2023-06-19T02:26:59;22.57;60.70
66835;HTU21D;53743;51.100;5.874;2023-06-19T02:28:02;22.50;61.55
66835;HTU21D;53743;51.100;5.874;2023-06-19T02:29:04;22.50;63.24
66835;HTU21D;53743;51.100;5.874;2023-06-19T02:30:07;22.42;63.33
66835;HTU21D;53743;51.100;5.874;2023-06-19T02:31:09;22.39;62.67
66835;HTU21D;53743;51.100;5.874;2023-06-19T02:32:12;22.32;64.14
66835;HTU21D;53743;51.100;5.874;2023-06-19T02:33:13;22.29;63.49
66835;HTU21D;53743;51.100;5.874;2023-06-19T02:34:15;22.31;64.06
66835;HTU21D;53743;51.100;5.874;2023-06-19T02:35:17;22.26;63.42
66835;HTU21D;53743;51.100;5.874;2023-06-19T02:36:19;22.20;64.91
66835;HTU21D;53743;51.100;5.874;2023-06-19T02:37:20;22.18;64.02
66835;HTU21D;53743;51.100;5.874;2023-06-19T02:38:21;22.20;64.94
66835;HTU21D;53743;51.100;5.874;2023-06-19T02:39:23;22.09;65.91
66835;HTU21D;53743;51.100;5.874;2023-06-19T02:40:26;22.06;65.24
66835;HTU21D;53743;51.100;5.874;2023-06-19T02:41:28;22.04;67.71
66835;HTU21D;53743;51.100;5.874;2023-06-19T02:42:30;22.02;66.40
66835;HTU21D;53743;51.100;5.874;2023-06-19T02:43:30;21.99;65.79
66835;HTU21D;53743;51.100;5.874;2023-06-19T02:44:33;21.97;66.88
66835;HTU21D;53743;51.100;5.874;2023-06-19T02:45:34;21.94;66.28
66835;HTU21D;53743;51.100;5.874;2023-06-19T02:46:36;21.93;67.63
66835;HTU21D;53743;51.100;5.874;2023-06-19T02:47:37;21.91;66.62
66835;HTU21D;53743;51.100;5.874;2023-06-19T02:48:39;21.89;68.75
66835;HTU21D;53743;51.100;5.874;2023-06-19T02:49:40;21.87;69.19
66835;HTU21D;53743;51.100;5.874;2023-06-19T02:50:42;21.84;69.15
66835;HTU21D;53743;51.100;5.874;2023-06-19T02:51:43;21.83;68.28
66835;HTU21D;53743;51.100;5.874;2023-06-19T02:52:45;21.78;68.13
66835;HTU21D;53743;51.100;5.874;2023-06-19T02:53:47;21.76;68.69
66835;HTU21D;53743;51.100;5.874;2023-06-19T02:54:49;21.75;69.43
66835;HTU21D;53743;51.100;5.874;2023-06-19T02:55:51;21.79;68.35
66835;HTU21D;53743;51.100;5.874;2023-06-19T02:56:53;21.80;68.16
66835;HTU21D;53743;51.100;5.874;2023-06-19T02:57:54;21.77;69.13
66835;HTU21D;53743;51.100;5.874;2023-06-19T02:58:56;21.70;69.51
66835;HTU21D;53743;51.100;5.874;2023-06-19T02:59:57;21.74;68.84
66835;HTU21D;53743;51.100;5.874;2023-06-19T03:00:59;21.70;69.97
66835;HTU21D;53743;51.100;5.874;2023-06-19T03:02:00;21.65;69.40
66835;HTU21D;53743;51.100;5.874;2023-06-19T03:03:02;21.65;68.95
66835;HTU21D;53743;51.100;5.874;2023-06-19T03:04:03;21.65;70.09
66835;HTU21D;53743;51.100;5.874;2023-06-19T03:05:06;21.63;69.61
66835;HTU21D;53743;51.100;5.874;2023-06-19T03:06:08;21.60;69.33
66835;HTU21D;53743;51.100;5.874;2023-06-19T03:07:10;21.58;70.64
66835;HTU21D;53743;51.100;5.874;2023-06-19T03:08:12;21.53;70.16
66835;HTU21D;53743;51.100;5.874;2023-06-19T03:09:15;21.51;69.78
66835;HTU21D;53743;51.100;5.874;2023-06-19T03:10:17;21.52;69.62
66835;HTU21D;53743;51.100;5.874;2023-06-19T03:11:20;21.51;71.02
66835;HTU21D;53743;51.100;5.874;2023-06-19T03:12:21;21.50;71.00
66835;HTU21D;53743;51.100;5.874;2023-06-19T03:13:23;21.45;72.92
66835;HTU21D;53743;51.100;5.874;2023-06-19T03:14:24;21.43;71.25
66835;HTU21D;53743;51.100;5.874;2023-06-19T03:15:26;21.35;73.45
66835;HTU21D;53743;51.100;5.874;2023-06-19T03:16:27;21.35;71.44
66835;HTU21D;53743;51.100;5.874;2023-06-19T03:17:30;21.32;73.86
66835;HTU21D;53743;51.100;5.874;2023-06-19T03:18:31;21.28;72.25
66835;HTU21D;53743;51.100;5.874;2023-06-19T03:19:33;21.34;71.93
66835;HTU21D;53743;51.100;5.874;2023-06-19T03:20:34;21.34;71.82
66835;HTU21D;53743;51.100;5.874;2023-06-19T03:21:36;21.29;73.31
66835;HTU21D;53743;51.100;5.874;2023-06-19T03:22:39;21.28;71.86
66835;HTU21D;53743;51.100;5.874;2023-06-19T03:23:42;21.30;72.31
66835;HTU21D;53743;51.100;5.874;2023-06-19T03:24:43;21.32;71.43
66835;HTU21D;53743;51.100;5.874;2023-06-19T03:25:51;21.32;71.65
66835;HTU21D;53743;51.100;5.874;2023-06-19T03:26:54;21.31;72.90
66835;HTU21D;53743;51.100;5.874;2023-06-19T03:27:56;21.31;73.03
66835;HTU21D;53743;51.100;5.874;2023-06-19T03:28:57;21.31;71.66
66835;HTU21D;53743;51.100;5.874;2023-06-19T03:30:00;21.28;71.82
66835;HTU21D;53743;51.100;5.874;2023-06-19T03:31:11;21.27;73.34
66835;HTU21D;53743;51.100;5.874;2023-06-19T03:32:13;21.23;73.77
66835;HTU21D;53743;51.100;5.874;2023-06-19T03:33:15;21.22;72.57
66835;HTU21D;53743;51.100;5.874;2023-06-19T03:34:20;21.20;73.39
66835;HTU21D;53743;51.100;5.874;2023-06-19T03:35:22;21.22;72.84
66835;HTU21D;53743;51.100;5.874;2023-06-19T03:36:24;21.27;72.29
66835;HTU21D;53743;51.100;5.874;2023-06-19T03:37:26;21.30;72.17
66835;HTU21D;53743;51.100;5.874;2023-06-19T03:38:27;21.31;73.38
66835;HTU21D;53743;51.100;5.874;2023-06-19T03:39:29;21.32;72.12
66835;HTU21D;53743;51.100;5.874;2023-06-19T03:40:37;21.33;73.57
66835;HTU21D;53743;51.100;5.874;2023-06-19T03:41:44;21.36;71.73
66835;HTU21D;53743;51.100;5.874;2023-06-19T03:42:46;21.42;71.74
66835;HTU21D;53743;51.100;5.874;2023-06-19T03:43:48;21.45;71.77
66835;HTU21D;53743;51.100;5.874;2023-06-19T03:44:50;21.47;73.06
66835;HTU21D;53743;51.100;5.874;2023-06-19T03:45:52;21.49;72.21
66835;HTU21D;53743;51.100;5.874;2023-06-19T03:46:54;21.50;72.46
66835;HTU21D;53743;51.100;5.874;2023-06-19T03:47:56;21.52;71.88
66835;HTU21D;53743;51.100;5.874;2023-06-19T03:48:57;21.55;73.73
66835;HTU21D;53743;51.100;5.874;2023-06-19T03:49:59;21.59;72.38
66835;HTU21D;53743;51.100;5.874;2023-06-19T03:51:00;21.60;71.76
66835;HTU21D;53743;51.100;5.874;2023-06-19T03:52:03;21.61;72.75
66835;HTU21D;53743;51.100;5.874;2023-06-19T03:53:04;21.60;73.65
66835;HTU21D;53743;51.100;5.874;2023-06-19T03:54:06;21.61;72.45
66835;HTU21D;53743;51.100;5.874;2023-06-19T03:55:07;21.65;71.56
66835;HTU21D;53743;51.100;5.874;2023-06-19T03:56:09;21.66;71.50
66835;HTU21D;53743;51.100;5.874;2023-06-19T03:57:10;21.68;73.04
66835;HTU21D;53743;51.100;5.874;2023-06-19T03:58:14;21.68;72.40
66835;HTU21D;53743;51.100;5.874;2023-06-19T03:59:16;21.72;71.55
66835;HTU21D;53743;51.100;5.874;2023-06-19T04:00:18;21.70;72.90
66835;HTU21D;53743;51.100;5.874;2023-06-19T04:01:19;21.74;72.25
66835;HTU21D;53743;51.100;5.874;2023-06-19T04:02:23;21.80;71.67
66835;HTU21D;53743;51.100;5.874;2023-06-19T04:03:24;21.79;72.70
66835;HTU21D;53743;51.100;5.874;2023-06-19T04:04:26;21.81;71.90
66835;HTU21D;53743;51.100;5.874;2023-06-19T04:05:27;21.82;71.14
66835;HTU21D;53743;51.100;5.874;2023-06-19T04:06:29;21.84;71.19
66835;HTU21D;53743;51.100;5.874;2023-06-19T04:07:30;21.87;71.18
66835;HTU21D;53743;51.100;5.874;2023-06-19T04:08:33;21.89;71.62
66835;HTU21D;53743;51.100;5.874;2023-06-19T04:09:34;21.89;72.55
66835;HTU21D;53743;51.100;5.874;2023-06-19T04:10:36;21.90;71.89
66835;HTU21D;53743;51.100;5.874;2023-06-19T04:11:37;21.90;71.03
66835;HTU21D;53743;51.100;5.874;2023-06-19T04:12:39;21.94;70.63
66835;HTU21D;53743;51.100;5.874;2023-06-19T04:13:42;21.95;71.19
66835;HTU21D;53743;51.100;5.874;2023-06-19T04:14:44;21.97;70.95
66835;HTU21D;53743;51.100;5.874;2023-06-19T04:15:45;21.99;70.48
66835;HTU21D;53743;51.100;5.874;2023-06-19T04:16:47;21.99;70.77
66835;HTU21D;53743;51.100;5.874;2023-06-19T04:17:49;21.99;70.44
66835;HTU21D;53743;51.100;5.874;2023-06-19T04:18:50;22.03;70.54
66835;HTU21D;53743;51.100;5.874;2023-06-19T04:19:51;22.03;71.56
66835;HTU21D;53743;51.100;5.874;2023-06-19T04:20:54;22.04;70.61
66835;HTU21D;53743;51.100;5.874;2023-06-19T04:21:55;22.06;70.41
66835;HTU21D;53743;51.100;5.874;2023-06-19T04:22:57;22.11;71.38
66835;HTU21D;53743;51.100;5.874;2023-06-19T04:23:58;22.12;71.23
66835;HTU21D;53743;51.100;5.874;2023-06-19T04:25:00;22.16;70.86
66835;HTU21D;53743;51.100;5.874;2023-06-19T04:26:01;22.18;70.13
66835;HTU21D;53743;51.100;5.874;2023-06-19T04:27:04;22.22;69.82
66835;HTU21D;53743;51.100;5.874;2023-06-19T04:28:05;22.27;69.64
66835;HTU21D;53743;51.100;5.874;2023-06-19T04:29:08;22.32;69.54
66835;HTU21D;53743;51.100;5.874;2023-06-19T04:30:17;22.39;69.41
66835;HTU21D;53743;51.100;5.874;2023-06-19T04:31:21;22.50;69.31
66835;HTU21D;53743;51.100;5.874;2023-06-19T04:32:22;22.60;68.92
66835;HTU21D;53743;51.100;5.874;2023-06-19T04:33:24;22.67;68.78
66835;HTU21D;53743;51.100;5.874;2023-06-19T04:34:26;22.75;68.42
66835;HTU21D;53743;51.100;5.874;2023-06-19T04:35:28;22.76;69.30
66835;HTU21D;53743;51.100;5.874;2023-06-19T04:36:29;22.79;68.87
66835;HTU21D;53743;51.100;5.874;2023-06-19T04:37:32;22.79;68.22
66835;HTU21D;53743;51.100;5.874;2023-06-19T04:38:33;22.77;68.01
66835;HTU21D;53743;51.100;5.874;2023-06-19T04:39:35;22.75;68.23
66835;HTU21D;53743;51.100;5.874;2023-06-19T04:40:36;22.71;69.24
66835;HTU21D;53743;51.100;5.874;2023-06-19T04:41:38;22.67;68.71
66835;HTU21D;53743;51.100;5.874;2023-06-19T04:42:39;22.61;69.00
66835;HTU21D;53743;51.100;5.874;2023-06-19T04:43:41;22.55;69.31
66835;HTU21D;53743;51.100;5.874;2023-06-19T04:44:43;22.51;69.51
66835;HTU21D;53743;51.100;5.874;2023-06-19T04:45:45;22.51;68.95
66835;HTU21D;53743;51.100;5.874;2023-06-19T04:46:47;22.49;69.04
66835;HTU21D;53743;51.100;5.874;2023-06-19T04:47:49;22.50;69.35
66835;HTU21D;53743;51.100;5.874;2023-06-19T04:48:50;22.48;69.36
66835;HTU21D;53743;51.100;5.874;2023-06-19T04:49:52;22.46;69.84
66835;HTU21D;53743;51.100;5.874;2023-06-19T04:50:53;22.41;69.87
66835;HTU21D;53743;51.100;5.874;2023-06-19T04:51:56;22.37;70.56
66835;HTU21D;53743;51.100;5.874;2023-06-19T04:52:57;22.36;71.01
66835;HTU21D;53743;51.100;5.874;2023-06-19T04:54:00;22.34;69.95
66835;HTU21D;53743;51.100;5.874;2023-06-19T04:55:01;22.35;70.20
66835;HTU21D;53743;51.100;5.874;2023-06-19T04:56:03;22.37;70.19
66835;HTU21D;53743;51.100;5.874;2023-06-19T04:57:05;22.39;70.80
66835;HTU21D;53743;51.100;5.874;2023-06-19T04:58:07;22.42;70.25
66835;HTU21D;53743;51.100;5.874;2023-06-19T04:59:08;22.46;69.69
66835;HTU21D;53743;51.100;5.874;2023-06-19T05:00:12;22.51;70.79
66835;HTU21D;53743;51.100;5.874;2023-06-19T05:01:15;22.55;69.57
66835;HTU21D;53743;51.100;5.874;2023-06-19T05:02:18;22.60;69.36
66835;HTU21D;53743;51.100;5.874;2023-06-19T05:03:19;22.65;69.02
66835;HTU21D;53743;51.100;5.874;2023-06-19T05:04:22;22.67;70.16
66835;HTU21D;53743;51.100;5.874;2023-06-19T05:05:23;22.68;68.91
66835;HTU21D;53743;51.100;5.874;2023-06-19T05:06:25;22.69;68.95
66835;HTU21D;53743;51.100;5.874;2023-06-19T05:07:26;22.70;68.76
66835;HTU21D;53743;51.100;5.874;2023-06-19T05:08:28;22.73;68.70
66835;HTU21D;53743;51.100;5.874;2023-06-19T05:09:29;22.71;69.40
66835;HTU21D;53743;51.100;5.874;2023-06-19T05:10:31;22.72;68.98
66835;HTU21D;53743;51.100;5.874;2023-06-19T05:11:33;22.69;68.94
66835;HTU21D;53743;51.100;5.874;2023-06-19T05:12:35;22.64;69.20
66835;HTU21D;53743;51.100;5.874;2023-06-19T05:13:36;22.58;69.52
66835;HTU21D;53743;51.100;5.874;2023-06-19T05:14:38;22.57;69.77
66835;HTU21D;53743;51.100;5.874;2023-06-19T05:15:41;22.56;70.27
66835;HTU21D;53743;51.100;5.874;2023-06-19T05:16:43;22.55;69.76
66835;HTU21D;53743;51.100;5.874;2023-06-19T05:17:45;22.51;73.32
66835;HTU21D;53743;51.100;5.874;2023-06-19T05:18:47;22.39;75.41
66835;HTU21D;53743;51.100;5.874;2023-06-19T05:19:48;22.31;73.25
66835;HTU21D;53743;51.100;5.874;2023-06-19T05:20:50;22.24;73.06
66835;HTU21D;53743;51.100;5.874;2023-06-19T05:21:51;22.24;74.06
66835;HTU21D;53743;51.100;5.874;2023-06-19T05:22:52;22.18;73.67
66835;HTU21D;53743;51.100;5.874;2023-06-19T05:23:53;22.17;73.15
66835;HTU21D;53743;51.100;5.874;2023-06-19T05:24:55;22.12;74.31
66835;HTU21D;53743;51.100;5.874;2023-06-19T05:25:56;22.09;74.75
66835;HTU21D;53743;51.100;5.874;2023-06-19T05:26:58;22.11;75.07
66835;HTU21D;53743;51.100;5.874;2023-06-19T05:28:00;22.08;75.02
66835;HTU21D;53743;51.100;5.874;2023-06-19T05:29:02;22.07;77.57
66835;HTU21D;53743;51.100;5.874;2023-06-19T05:30:04;22.02;75.70
66835;HTU21D;53743;51.100;5.874;2023-06-19T05:31:08;22.01;76.11
66835;HTU21D;53743;51.100;5.874;2023-06-19T05:32:09;22.02;75.07
66835;HTU21D;53743;51.100;5.874;2023-06-19T05:33:11;22.04;77.81
66835;HTU21D;53743;51.100;5.874;2023-06-19T05:34:16;22.06;77.02
66835;HTU21D;53743;51.100;5.874;2023-06-19T05:35:18;22.07;75.46
66835;HTU21D;53743;51.100;5.874;2023-06-19T05:36:19;22.07;78.46
66835;HTU21D;53743;51.100;5.874;2023-06-19T05:37:21;22.06;76.06
66835;HTU21D;53743;51.100;5.874;2023-06-19T05:38:22;22.08;76.96
66835;HTU21D;53743;51.100;5.874;2023-06-19T05:39:26;22.09;76.89
66835;HTU21D;53743;51.100;5.874;2023-06-19T05:40:27;22.10;79.23
66835;HTU21D;53743;51.100;5.874;2023-06-19T05:41:29;22.13;77.02
66835;HTU21D;53743;51.100;5.874;2023-06-19T05:42:31;22.14;77.44
66835;HTU21D;53743;51.100;5.874;2023-06-19T05:43:33;22.18;77.42
66835;HTU21D;53743;51.100;5.874;2023-06-19T05:44:34;22.23;76.96
66835;HTU21D;53743;51.100;5.874;2023-06-19T05:45:36;22.25;78.86
66835;HTU21D;53743;51.100;5.874;2023-06-19T05:46:38;22.27;77.21
66835;HTU21D;53743;51.100;5.874;2023-06-19T05:47:40;22.29;77.79
66835;HTU21D;53743;51.100;5.874;2023-06-19T05:48:41;22.28;76.97
66835;HTU21D;53743;51.100;5.874;2023-06-19T05:49:43;22.24;78.71
66835;HTU21D;53743;51.100;5.874;2023-06-19T05:50:44;22.22;77.03
66835;HTU21D;53743;51.100;5.874;2023-06-19T05:51:46;22.21;77.59
66835;HTU21D;53743;51.100;5.874;2023-06-19T05:52:48;22.19;79.51
66835;HTU21D;53743;51.100;5.874;2023-06-19T05:53:51;22.16;77.61
66835;HTU21D;53743;51.100;5.874;2023-06-19T05:54:53;22.14;77.35
66835;HTU21D;53743;51.100;5.874;2023-06-19T05:55:54;22.10;79.66
66835;HTU21D;53743;51.100;5.874;2023-06-19T05:56:56;22.08;78.53
66835;HTU21D;53743;51.100;5.874;2023-06-19T05:57:57;22.05;78.94
66835;HTU21D;53743;51.100;5.874;2023-06-19T05:58:59;22.05;80.82
66835;HTU21D;53743;51.100;5.874;2023-06-19T06:00:00;22.03;79.08
66835;HTU21D;53743;51.100;5.874;2023-06-19T06:01:13;21.96;80.47
66835;HTU21D;53743;51.100;5.874;2023-06-19T06:02:16;21.94;81.83
66835;HTU21D;53743;51.100;5.874;2023-06-19T06:03:19;21.91;80.14
66835;HTU21D;53743;51.100;5.874;2023-06-19T06:04:20;21.88;82.10
66835;HTU21D;53743;51.100;5.874;2023-06-19T06:05:23;21.91;80.63
66835;HTU21D;53743;51.100;5.874;2023-06-19T06:06:25;21.93;80.18
66835;HTU21D;53743;51.100;5.874;2023-06-19T06:07:28;21.92;80.65
66835;HTU21D;53743;51.100;5.874;2023-06-19T06:08:30;21.93;80.30
66835;HTU21D;53743;51.100;5.874;2023-06-19T06:09:32;21.99;80.08
66835;HTU21D;53743;51.100;5.874;2023-06-19T06:10:33;21.95;79.84
66835;HTU21D;53743;51.100;5.874;2023-06-19T06:11:35;21.92;80.01
66835;HTU21D;53743;51.100;5.874;2023-06-19T06:12:36;21.91;80.12
66835;HTU21D;53743;51.100;5.874;2023-06-19T06:13:38;21.95;79.73
66835;HTU21D;53743;51.100;5.874;2023-06-19T06:14:41;21.94;81.33
66835;HTU21D;53743;51.100;5.874;2023-06-19T06:15:42;21.93;80.44
66835;HTU21D;53743;51.100;5.874;2023-06-19T06:16:44;21.93;79.96
66835;HTU21D;53743;51.100;5.874;2023-06-19T06:17:46;21.96;80.24
66835;HTU21D;53743;51.100;5.874;2023-06-19T06:18:48;21.95;81.36
66835;HTU21D;53743;51.100;5.874;2023-06-19T06:19:50;21.95;80.49
66835;HTU21D;53743;51.100;5.874;2023-06-19T06:20:51;21.96;79.72
66835;HTU21D;53743;51.100;5.874;2023-06-19T06:21:53;21.93;81.36
66835;HTU21D;53743;51.100;5.874;2023-06-19T06:22:54;21.96;79.66
66835;HTU21D;53743;51.100;5.874;2023-06-19T06:23:56;21.99;80.20
66835;HTU21D;53743;51.100;5.874;2023-06-19T06:24:57;22.03;79.70
66835;HTU21D;53743;51.100;5.874;2023-06-19T06:25:59;22.05;79.62
66835;HTU21D;53743;51.100;5.874;2023-06-19T06:27:03;22.07;81.31
66835;HTU21D;53743;51.100;5.874;2023-06-19T06:28:05;22.10;79.61